Time;durP1;ratioP1;P1;durP2;ratioP2;P2;SDS_P1;SDS_P2;PMS_P1;PMS_P2;Temp;Humidity;BMP_temperature;BMP_pressure;BME280_temperature;BME280_humidity;BME280_pressure;Samples;Min_cycle;Max_cycle;Signal;HPM_P1;HPM_P2
2023/08/16 00:01:22;;;;;;;0.10;0.10;;;12.40;99.90;;;;;;5096687;27;20771;-67
2023/08/16 00:03:47;;;;;;;0.55;0.20;;;12.30;99.90;;;;;;5134073;27;20092;-67
2023/08/16 00:06:14;;;;;;;0.10;0.10;;;12.20;99.90;;;;;;5108755;27;20066;-67
2023/08/16 00:08:40;;;;;;;0.03;0.03;;;12.20;99.90;;;;;;5108608;27;20051;-68
2023/08/16 00:11:06;;;;;;;0.00;0.00;;;12.20;99.90;;;;;;5104809;27;20118;-67
2023/08/16 00:13:33;;;;;;;0.10;0.10;;;12.20;99.90;;;;;;5100695;27;20077;-67
2023/08/16 00:15:59;;;;;;;1.13;0.40;;;12.30;99.90;;;;;;5124810;27;20031;-67
2023/08/16 00:18:25;;;;;;;0.20;0.20;;;12.30;99.90;;;;;;5103883;27;20039;-67
2023/08/16 00:20:51;;;;;;;0.10;0.10;;;12.30;99.90;;;;;;5107462;28;20084;-67
2023/08/16 00:23:16;;;;;;;0.00;0.00;;;12.20;99.90;;;;;;5104667;27;20455;-67
2023/08/16 00:25:42;;;;;;;0.03;0.03;;;12.20;99.90;;;;;;5102242;28;20122;-67
2023/08/16 00:28:07;;;;;;;0.00;0.00;;;12.10;99.90;;;;;;5111373;27;20039;-67
2023/08/16 00:30:33;;;;;;;0.00;0.00;;;12.00;99.90;;;;;;5111135;27;20076;-67
2023/08/16 00:32:59;;;;;;;0.45;0.25;;;12.00;99.90;;;;;;5105375;27;20055;-67
2023/08/16 00:35:24;;;;;;;0.00;0.00;;;12.00;99.90;;;;;;5099568;27;20047;-67
2023/08/16 00:37:50;;;;;;;0.00;0.00;;;11.90;99.90;;;;;;5123330;27;20062;-67
2023/08/16 00:40:16;;;;;;;0.10;0.10;;;11.90;99.90;;;;;;5135563;27;20114;-67
2023/08/16 00:42:41;;;;;;;0.00;0.00;;;11.90;99.90;;;;;;5100116;27;20051;-67
2023/08/16 00:45:08;;;;;;;0.00;0.00;;;11.80;99.90;;;;;;5101213;27;20031;-66
2023/08/16 00:47:34;;;;;;;0.00;0.00;;;11.70;99.90;;;;;;5104420;27;20077;-67
2023/08/16 00:50:00;;;;;;;0.00;0.00;;;11.70;99.90;;;;;;5105067;27;20383;-67
2023/08/16 00:52:26;;;;;;;0.00;0.00;;;11.60;99.90;;;;;;5102718;27;20046;-67
2023/08/16 00:54:53;;;;;;;0.40;0.15;;;11.60;99.90;;;;;;5101764;27;20292;-67
2023/08/16 00:57:19;;;;;;;0.00;0.00;;;11.60;99.90;;;;;;5100671;27;20031;-67
2023/08/16 00:59:45;;;;;;;0.22;0.08;;;11.60;99.90;;;;;;5119923;27;20038;-67
2023/08/16 01:02:14;;;;;;;0.00;0.00;;;11.60;99.90;;;;;;5107804;27;20039;-67
2023/08/16 01:04:45;;;;;;;0.00;0.00;;;11.60;99.90;;;;;;5134772;27;20092;-67
2023/08/16 01:07:11;;;;;;;0.00;0.00;;;11.60;99.90;;;;;;5108248;27;20049;-67
2023/08/16 01:09:36;;;;;;;0.03;0.03;;;11.60;99.90;;;;;;5103771;27;20389;-67
2023/08/16 01:12:05;;;;;;;0.08;0.08;;;11.60;99.90;;;;;;5135593;27;20043;-68
2023/08/16 01:14:40;;;;;;;0.10;0.10;;;11.60;99.90;;;;;;5117678;27;20149;-67
2023/08/16 01:17:07;;;;;;;0.00;0.00;;;11.60;99.90;;;;;;5107285;27;20110;-67
2023/08/16 01:19:33;;;;;;;0.00;0.00;;;11.70;99.90;;;;;;5102901;27;20482;-67
2023/08/16 01:22:22;;;;;;;0.00;0.00;;;11.70;99.90;;;;;;5102806;27;20487;-67
2023/08/16 01:25:09;;;;;;;0.00;0.00;;;11.70;99.90;;;;;;5099142;27;20092;-67
2023/08/16 01:27:35;;;;;;;0.10;0.10;;;11.70;99.90;;;;;;5102780;27;20155;-67
2023/08/16 01:30:06;;;;;;;0.10;0.10;;;11.70;99.90;;;;;;5119045;27;20043;-66
2023/08/16 01:32:32;;;;;;;0.00;0.00;;;11.80;99.90;;;;;;5097377;27;20047;-67
2023/08/16 01:34:58;;;;;;;0.00;0.00;;;11.80;99.90;;;;;;5096431;27;20085;-67
2023/08/16 01:37:25;;;;;;;0.30;0.30;;;11.80;99.90;;;;;;5100233;27;20035;-67
2023/08/16 01:39:51;;;;;;;0.00;0.00;;;11.80;99.90;;;;;;5106198;27;20494;-67
2023/08/16 01:42:17;;;;;;;0.10;0.10;;;11.80;99.90;;;;;;5101609;27;20042;-67
2023/08/16 01:44:48;;;;;;;0.20;0.20;;;11.80;99.90;;;;;;5100288;27;20043;-68
2023/08/16 01:47:15;;;;;;;0.30;0.20;;;11.90;99.90;;;;;;5101545;27;20122;-68
2023/08/16 01:49:44;;;;;;;0.20;0.10;;;11.80;99.90;;;;;;5122809;27;20037;-67
2023/08/16 01:52:10;;;;;;;0.00;0.00;;;11.70;99.90;;;;;;5124156;27;20058;-68
2023/08/16 01:54:35;;;;;;;0.00;0.00;;;11.80;99.90;;;;;;5095150;28;20055;-68
2023/08/16 01:57:01;;;;;;;0.00;0.00;;;11.80;99.90;;;;;;5115064;27;20043;-68
2023/08/16 01:59:26;;;;;;;0.08;0.08;;;11.80;99.90;;;;;;5102907;27;20397;-68
2023/08/16 02:01:52;;;;;;;0.10;0.10;;;11.70;99.90;;;;;;5097296;27;20051;-68
2023/08/16 02:04:17;;;;;;;0.10;0.10;;;11.70;99.90;;;;;;5119809;27;20074;-68
2023/08/16 02:06:44;;;;;;;0.10;0.10;;;11.80;99.90;;;;;;5101265;27;20535;-69
2023/08/16 02:09:09;;;;;;;0.00;0.00;;;11.80;99.90;;;;;;5107190;27;20484;-70
2023/08/16 02:11:35;;;;;;;0.00;0.00;;;11.70;99.90;;;;;;5098093;28;20046;-70
2023/08/16 02:14:00;;;;;;;0.05;0.05;;;11.60;99.90;;;;;;5140985;27;20031;-70
2023/08/16 02:16:26;;;;;;;0.00;0.00;;;11.50;99.90;;;;;;5106723;27;20038;-70
2023/08/16 02:18:52;;;;;;;0.10;0.10;;;11.50;99.90;;;;;;5101711;27;20039;-70
2023/08/16 02:21:18;;;;;;;0.10;0.10;;;11.40;99.90;;;;;;5103198;27;20050;-70
2023/08/16 02:23:43;;;;;;;0.20;0.10;;;11.40;99.90;;;;;;5102632;27;20039;-70
2023/08/16 02:26:09;;;;;;;0.10;0.10;;;11.30;99.90;;;;;;5097420;27;20039;-70
2023/08/16 02:28:35;;;;;;;0.03;0.03;;;11.40;99.90;;;;;;5104619;27;20039;-69
2023/08/16 02:31:05;;;;;;;0.65;0.38;;;11.40;99.90;;;;;;5098853;27;20078;-68
2023/08/16 02:33:32;;;;;;;0.10;0.10;;;11.30;99.90;;;;;;5107852;27;20046;-69
2023/08/16 02:35:58;;;;;;;0.10;0.10;;;11.20;99.90;;;;;;5097396;27;20038;-69
2023/08/16 02:38:24;;;;;;;0.13;0.13;;;11.20;99.90;;;;;;5095467;27;20035;-69
2023/08/16 02:40:49;;;;;;;0.20;0.20;;;11.10;99.90;;;;;;5105234;27;20119;-69
2023/08/16 02:43:15;;;;;;;0.43;0.25;;;11.10;99.90;;;;;;5103387;27;20039;-70
2023/08/16 02:45:41;;;;;;;0.10;0.10;;;11.10;99.90;;;;;;5113815;27;20435;-69
2023/08/16 02:48:06;;;;;;;2.78;0.47;;;11.10;99.90;;;;;;5103578;28;20050;-69
2023/08/16 02:50:32;;;;;;;0.10;0.10;;;11.10;99.90;;;;;;5135238;27;20084;-70
2023/08/16 02:52:57;;;;;;;0.00;0.00;;;11.20;99.90;;;;;;5099888;27;20043;-70
2023/08/16 02:55:23;;;;;;;0.10;0.10;;;11.20;99.90;;;;;;5092301;27;20732;-70
2023/08/16 02:57:49;;;;;;;0.68;0.35;;;11.20;99.90;;;;;;5101744;27;20098;-70
2023/08/16 03:00:15;;;;;;;0.10;0.10;;;11.10;99.90;;;;;;5098080;27;20031;-70
2023/08/16 03:02:41;;;;;;;0.00;0.00;;;11.30;99.90;;;;;;5099959;28;20038;-71
2023/08/16 03:05:06;;;;;;;0.10;0.10;;;11.30;99.90;;;;;;5098385;27;20462;-71
2023/08/16 03:07:32;;;;;;;0.00;0.00;;;11.20;99.90;;;;;;5102288;27;20042;-71
2023/08/16 03:09:58;;;;;;;0.20;0.20;;;11.20;99.90;;;;;;5102744;27;20049;-71
2023/08/16 03:12:24;;;;;;;0.10;0.10;;;11.20;99.90;;;;;;5094490;28;20031;-70
2023/08/16 03:14:50;;;;;;;0.00;0.00;;;11.10;99.90;;;;;;5134795;27;20047;-70
2023/08/16 03:17:15;;;;;;;0.05;0.05;;;11.20;99.90;;;;;;5137420;27;20035;-70
2023/08/16 03:19:41;;;;;;;0.10;0.10;;;11.20;99.90;;;;;;5101138;28;20383;-70
2023/08/16 03:22:07;;;;;;;0.10;0.10;;;11.20;99.90;;;;;;5101044;28;20031;-70
2023/08/16 03:24:33;;;;;;;0.15;0.15;;;11.20;99.90;;;;;;5095906;28;20047;-70
2023/08/16 03:26:59;;;;;;;0.15;0.10;;;11.10;99.90;;;;;;5107339;28;20039;-70
2023/08/16 03:29:24;;;;;;;0.17;0.17;;;11.10;99.90;;;;;;5101230;28;20043;-70
2023/08/16 03:31:50;;;;;;;0.32;0.32;;;11.10;99.90;;;;;;5096432;28;20039;-70
2023/08/16 03:34:16;;;;;;;0.40;0.25;;;11.10;99.90;;;;;;5102095;28;20196;-70
2023/08/16 03:36:42;;;;;;;0.00;0.00;;;11.10;99.90;;;;;;5099689;28;20043;-71
2023/08/16 03:39:07;;;;;;;0.30;0.30;;;11.10;99.90;;;;;;5099676;28;20042;-71
2023/08/16 03:41:33;;;;;;;0.08;0.08;;;11.10;99.90;;;;;;5095393;28;20053;-71
2023/08/16 03:44:00;;;;;;;0.10;0.10;;;11.20;99.90;;;;;;5095856;28;20071;-71
2023/08/16 03:46:26;;;;;;;0.03;0.03;;;11.10;99.90;;;;;;5095530;28;20039;-71
2023/08/16 03:48:51;;;;;;;0.10;0.00;;;11.10;99.90;;;;;;5102759;28;20065;-71
2023/08/16 03:51:17;;;;;;;0.40;0.40;;;11.10;99.90;;;;;;5100542;28;20032;-71
2023/08/16 03:53:43;;;;;;;0.10;0.10;;;11.10;99.90;;;;;;5096681;28;20457;-71
2023/08/16 03:56:08;;;;;;;0.13;0.13;;;11.10;99.90;;;;;;5103201;28;20047;-71
2023/08/16 03:58:34;;;;;;;0.10;0.10;;;11.10;99.90;;;;;;5106419;28;20039;-71
2023/08/16 04:00:59;;;;;;;0.10;0.10;;;11.10;99.90;;;;;;5097811;27;20138;-70
2023/08/16 04:03:26;;;;;;;0.10;0.10;;;11.10;99.90;;;;;;5105404;28;20034;-71
2023/08/16 04:05:52;;;;;;;0.70;0.30;;;11.10;99.90;;;;;;5095734;28;20074;-70
2023/08/16 04:08:18;;;;;;;0.15;0.15;;;11.10;99.90;;;;;;5131381;27;20070;-70
2023/08/16 04:10:44;;;;;;;0.20;0.20;;;11.10;99.90;;;;;;5101942;28;20035;-70
2023/08/16 04:13:10;;;;;;;0.75;0.38;;;11.10;99.90;;;;;;5102330;28;20562;-71
2023/08/16 04:15:35;;;;;;;0.00;0.00;;;11.10;99.90;;;;;;5101162;28;20043;-71
2023/08/16 04:18:01;;;;;;;0.00;0.00;;;11.00;99.90;;;;;;5101081;28;20066;-70
2023/08/16 04:20:26;;;;;;;0.20;0.20;;;11.00;99.90;;;;;;5094468;28;20035;-70
2023/08/16 04:22:52;;;;;;;0.00;0.00;;;11.00;99.90;;;;;;5094952;28;20402;-70
2023/08/16 04:25:18;;;;;;;0.00;0.00;;;11.10;99.90;;;;;;5100695;28;20043;-70
2023/08/16 04:27:44;;;;;;;0.00;0.00;;;11.10;99.90;;;;;;5134426;27;20092;-70
2023/08/16 04:30:10;;;;;;;0.00;0.00;;;11.10;99.90;;;;;;5132441;27;20047;-69
2023/08/16 04:32:36;;;;;;;0.00;0.00;;;11.10;99.90;;;;;;5095601;28;20027;-68
2023/08/16 04:35:05;;;;;;;0.30;0.30;;;11.10;99.90;;;;;;5102807;28;20048;-69
2023/08/16 04:37:31;;;;;;;0.00;0.00;;;11.10;99.90;;;;;;5118410;28;20122;-68
2023/08/16 04:39:57;;;;;;;0.20;0.20;;;11.10;99.90;;;;;;5102891;27;20422;-69
2023/08/16 04:42:22;;;;;;;0.03;0.03;;;11.20;99.90;;;;;;5109228;27;20405;-68
2023/08/16 04:44:48;;;;;;;0.38;0.20;;;11.20;99.90;;;;;;5122667;27;20054;-69
2023/08/16 04:47:14;;;;;;;0.15;0.15;;;11.20;99.90;;;;;;5102101;27;20496;-70
2023/08/16 04:49:39;;;;;;;0.47;0.10;;;11.20;99.90;;;;;;5120550;27;20051;-70
2023/08/16 04:52:05;;;;;;;0.10;0.10;;;11.20;99.90;;;;;;5102001;27;20054;-70
2023/08/16 04:54:31;;;;;;;1.23;0.45;;;11.20;99.90;;;;;;5106860;27;20054;-70
2023/08/16 04:56:58;;;;;;;0.35;0.13;;;11.30;99.90;;;;;;5101141;27;20031;-70
2023/08/16 04:59:23;;;;;;;0.43;0.43;;;11.30;99.90;;;;;;5103035;27;20439;-69
2023/08/16 05:01:49;;;;;;;0.20;0.20;;;11.30;99.90;;;;;;5104559;27;20151;-69
2023/08/16 05:04:15;;;;;;;0.10;0.10;;;11.30;99.90;;;;;;5102124;27;20040;-69
2023/08/16 05:06:41;;;;;;;0.30;0.30;;;11.30;99.90;;;;;;5112529;27;20043;-70
2023/08/16 05:09:07;;;;;;;0.20;0.20;;;11.20;99.90;;;;;;5102586;27;20043;-70
2023/08/16 05:11:32;;;;;;;0.63;0.15;;;11.20;99.90;;;;;;5100949;28;20046;-70
2023/08/16 05:13:58;;;;;;;0.45;0.40;;;11.20;99.90;;;;;;5098026;27;20493;-70
2023/08/16 05:16:24;;;;;;;3.08;0.47;;;11.20;99.90;;;;;;5135176;27;20071;-70
2023/08/16 05:18:50;;;;;;;0.75;0.63;;;11.30;99.90;;;;;;5116240;27;20038;-72
2023/08/16 05:21:15;;;;;;;0.63;0.20;;;11.30;99.90;;;;;;5104454;27;20099;-70
2023/08/16 05:23:41;;;;;;;0.10;0.10;;;11.30;99.90;;;;;;5099892;27;20128;-71
2023/08/16 05:26:07;;;;;;;0.28;0.28;;;11.30;99.90;;;;;;5101820;27;20505;-69
2023/08/16 05:28:32;;;;;;;0.28;0.28;;;11.40;99.90;;;;;;5103252;27;20096;-69
2023/08/16 05:31:08;;;;;;;0.17;0.17;;;11.40;99.90;;;;;;5140684;27;20531;-70
2023/08/16 05:33:34;;;;;;;0.20;0.20;;;11.50;99.90;;;;;;5098902;27;20039;-70
2023/08/16 05:36:00;;;;;;;0.03;0.03;;;11.50;99.90;;;;;;5081165;27;20492;-69
2023/08/16 05:38:25;;;;;;;0.28;0.28;;;11.60;99.90;;;;;;5104981;27;20130;-69
2023/08/16 05:40:51;;;;;;;0.00;0.00;;;11.70;99.90;;;;;;5101392;28;20063;-69
2023/08/16 05:43:17;;;;;;;0.00;0.00;;;11.80;99.90;;;;;;5126991;27;20421;-68
2023/08/16 05:45:42;;;;;;;0.00;0.00;;;12.00;99.90;;;;;;5101140;27;20100;-69
2023/08/16 05:48:08;;;;;;;0.38;0.10;;;12.10;99.90;;;;;;5100675;27;20039;-69
2023/08/16 05:50:35;;;;;;;0.32;0.13;;;12.20;99.90;;;;;;5097304;27;20034;-68
2023/08/16 05:53:01;;;;;;;0.10;0.10;;;12.40;99.90;;;;;;5104950;27;20045;-68
2023/08/16 05:55:26;;;;;;;0.00;0.00;;;12.50;99.90;;;;;;5102045;27;20472;-68
2023/08/16 05:57:52;;;;;;;0.63;0.10;;;12.60;99.90;;;;;;5098916;27;20036;-68
2023/08/16 06:00:17;;;;;;;0.05;0.05;;;12.80;99.90;;;;;;5101565;27;20423;-66
2023/08/16 06:02:43;;;;;;;0.00;0.00;;;12.90;99.90;;;;;;5120930;27;20077;-67
2023/08/16 06:05:09;;;;;;;0.00;0.00;;;13.00;99.90;;;;;;5106980;27;20039;-66
2023/08/16 06:07:35;;;;;;;0.10;0.10;;;13.10;99.90;;;;;;5101964;27;20050;-66
2023/08/16 06:10:01;;;;;;;0.00;0.00;;;13.30;99.90;;;;;;5104003;27;20047;-66
2023/08/16 06:12:26;;;;;;;0.10;0.10;;;13.30;99.90;;;;;;5132556;27;20173;-66
2023/08/16 06:14:52;;;;;;;0.10;0.10;;;13.40;99.90;;;;;;5107539;27;20035;-66
2023/08/16 06:17:18;;;;;;;0.10;0.10;;;13.50;99.90;;;;;;5104778;27;20080;-66
2023/08/16 06:19:43;;;;;;;0.10;0.10;;;13.60;99.90;;;;;;5107297;27;20486;-69
2023/08/16 06:22:09;;;;;;;0.20;0.10;;;13.70;99.90;;;;;;5113157;28;20511;-68
2023/08/16 06:24:35;;;;;;;0.00;0.00;;;13.90;99.90;;;;;;5116614;27;20047;-68
2023/08/16 06:27:01;;;;;;;0.20;0.20;;;14.00;99.90;;;;;;5107566;27;20432;-68
2023/08/16 06:29:26;;;;;;;0.10;0.10;;;14.10;99.90;;;;;;5099837;27;20039;-68
2023/08/16 06:31:55;;;;;;;0.30;0.20;;;14.20;99.90;;;;;;5112289;27;20046;-68
2023/08/16 06:34:21;;;;;;;0.28;0.17;;;14.30;99.90;;;;;;5108436;27;20031;-68
2023/08/16 06:36:49;;;;;;;0.10;0.00;;;14.40;99.90;;;;;;5111806;27;20055;-67
2023/08/16 06:39:15;;;;;;;0.30;0.25;;;14.60;99.90;;;;;;5113555;27;20059;-67
2023/08/16 06:41:40;;;;;;;0.20;0.20;;;14.70;99.90;;;;;;5122370;27;20070;-66
2023/08/16 06:44:06;;;;;;;0.10;0.10;;;14.80;99.90;;;;;;5096616;27;20055;-66
2023/08/16 06:46:31;;;;;;;0.32;0.32;;;15.00;99.90;;;;;;5130831;27;20047;-66
2023/08/16 06:48:58;;;;;;;0.15;0.15;;;15.20;99.90;;;;;;5128260;27;20039;-65
2023/08/16 06:51:24;;;;;;;0.05;0.05;;;15.40;99.90;;;;;;5114979;27;20047;-68
2023/08/16 06:53:50;;;;;;;0.20;0.10;;;15.60;99.90;;;;;;5113161;27;20121;-67
2023/08/16 06:56:16;;;;;;;0.25;0.17;;;15.90;99.90;;;;;;5116851;27;20497;-66
2023/08/16 06:58:42;;;;;;;0.30;0.30;;;16.00;99.90;;;;;;5117002;27;20046;-67
2023/08/16 07:01:08;;;;;;;0.35;0.35;;;16.10;99.90;;;;;;5110687;27;20046;-69
2023/08/16 07:03:34;;;;;;;0.30;0.10;;;16.30;99.90;;;;;;5118732;27;20116;-68
2023/08/16 07:06:00;;;;;;;0.40;0.40;;;16.50;99.90;;;;;;5112118;27;20401;-68
2023/08/16 07:08:25;;;;;;;0.10;0.10;;;16.50;99.90;;;;;;5110714;27;20065;-69
2023/08/16 07:10:51;;;;;;;0.03;0.03;;;16.60;99.90;;;;;;5112453;27;20126;-68
2023/08/16 07:13:17;;;;;;;0.08;0.08;;;16.60;99.90;;;;;;5117656;27;20485;-68
2023/08/16 07:15:43;;;;;;;0.00;0.00;;;16.60;99.90;;;;;;5086349;28;20036;-68
2023/08/16 07:18:08;;;;;;;0.30;0.30;;;16.70;99.90;;;;;;5106324;28;20039;-69
2023/08/16 07:20:34;;;;;;;0.30;0.30;;;16.80;99.90;;;;;;5131665;27;20043;-69
2023/08/16 07:23:00;;;;;;;0.08;0.08;;;16.90;99.90;;;;;;5101275;28;20039;-69
2023/08/16 07:25:28;;;;;;;0.20;0.20;;;17.10;99.90;;;;;;5108756;28;20043;-70
2023/08/16 07:27:54;;;;;;;0.10;0.10;;;17.20;99.90;;;;;;5112970;28;20164;-68
2023/08/16 07:30:20;;;;;;;1.85;0.40;;;17.40;99.90;;;;;;5121744;28;20122;-68
2023/08/16 07:32:45;;;;;;;0.70;0.70;;;17.50;99.90;;;;;;5149624;27;20035;-68
2023/08/16 07:35:11;;;;;;;0.10;0.10;;;17.70;99.90;;;;;;5097473;28;20089;-68
2023/08/16 07:37:37;;;;;;;0.20;0.20;;;17.90;99.90;;;;;;5110750;28;20118;-67
2023/08/16 07:40:04;;;;;;;0.10;0.10;;;18.00;99.90;;;;;;5110917;28;20039;-68
2023/08/16 07:42:30;;;;;;;0.43;0.20;;;18.00;99.90;;;;;;5093846;28;20054;-66
2023/08/16 07:44:58;;;;;;;0.10;0.10;;;18.10;99.90;;;;;;5126841;27;20110;-67
2023/08/16 07:47:24;;;;;;;0.82;0.52;;;18.20;99.90;;;;;;5110663;28;20039;-67
2023/08/16 07:49:50;;;;;;;0.70;0.55;;;18.30;99.90;;;;;;5112474;28;20232;-66
2023/08/16 07:52:15;;;;;;;0.10;0.10;;;18.50;99.90;;;;;;5113834;28;20055;-66
2023/08/16 07:54:41;;;;;;;0.30;0.30;;;18.60;99.90;;;;;;5127975;27;20057;-68
2023/08/16 07:57:07;;;;;;;0.63;0.45;;;18.70;99.90;;;;;;5113843;28;20037;-67
2023/08/16 07:59:33;;;;;;;0.00;0.00;;;18.90;99.90;;;;;;5110571;28;20084;-67
2023/08/16 08:01:58;;;;;;;0.65;0.65;;;18.90;99.90;;;;;;5112655;28;20261;-67
2023/08/16 08:04:25;;;;;;;0.25;0.25;;;19.00;99.90;;;;;;5110726;28;20039;-67
2023/08/16 08:06:50;;;;;;;0.30;0.20;;;19.10;99.90;;;;;;5119537;28;20169;-68
2023/08/16 08:09:17;;;;;;;0.25;0.25;;;19.20;99.90;;;;;;5097930;28;20044;-67
2023/08/16 08:11:43;;;;;;;0.30;0.30;;;19.30;99.90;;;;;;5106664;28;20478;-69
2023/08/16 08:14:08;;;;;;;0.10;0.10;;;19.40;99.90;;;;;;5120184;27;20447;-69
2023/08/16 08:16:34;;;;;;;0.00;0.00;;;19.50;99.90;;;;;;5114566;27;20035;-68
2023/08/16 08:19:00;;;;;;;0.10;0.10;;;19.50;99.90;;;;;;5115703;27;20039;-68
2023/08/16 08:21:25;;;;;;;0.17;0.17;;;19.50;99.90;;;;;;5114263;27;20103;-67
2023/08/16 08:23:51;;;;;;;1.20;1.00;;;19.50;99.90;;;;;;5118347;27;20468;-68
2023/08/16 08:26:16;;;;;;;0.28;0.28;;;19.50;99.90;;;;;;5101289;27;20455;-66
2023/08/16 08:28:42;;;;;;;0.70;0.15;;;19.60;99.90;;;;;;5094807;27;20032;-66
2023/08/16 08:31:08;;;;;;;4.75;0.20;;;19.60;99.90;;;;;;5134537;27;20043;-67
2023/08/16 08:33:34;;;;;;;0.70;0.70;;;19.70;99.90;;;;;;5113623;27;20039;-66
2023/08/16 08:36:00;;;;;;;0.17;0.17;;;19.80;99.90;;;;;;5095089;28;20054;-67
2023/08/16 08:38:26;;;;;;;0.28;0.28;;;19.80;99.90;;;;;;5117053;27;20039;-66
2023/08/16 08:40:59;;;;;;;0.40;0.40;;;19.90;99.90;;;;;;5128895;27;20388;-66
2023/08/16 08:43:29;;;;;;;0.40;0.40;;;19.90;99.90;;;;;;5103997;27;20120;-68
2023/08/16 08:45:58;;;;;;;0.10;0.10;;;20.10;99.90;;;;;;5128124;27;20043;-67
2023/08/16 08:48:26;;;;;;;0.03;0.03;;;20.20;99.90;;;;;;5094642;27;20398;-67
2023/08/16 08:50:53;;;;;;;0.20;0.20;;;20.30;99.90;;;;;;5134080;27;20062;-66
2023/08/16 08:53:23;;;;;;;0.10;0.10;;;20.40;99.90;;;;;;5111995;27;20044;-68
2023/08/16 08:55:54;;;;;;;0.10;0.10;;;20.60;99.90;;;;;;5122754;27;20045;-67
2023/08/16 08:58:20;;;;;;;0.30;0.20;;;20.60;99.90;;;;;;5113321;27;20398;-66
2023/08/16 09:00:47;;;;;;;1.17;0.45;;;20.80;99.90;;;;;;5112858;27;20442;-66
2023/08/16 09:03:15;;;;;;;0.10;0.10;;;20.80;99.90;;;;;;5107170;27;20043;-67
2023/08/16 09:05:42;;;;;;;0.10;0.10;;;20.90;99.90;;;;;;5117062;27;20067;-65
2023/08/16 09:08:13;;;;;;;0.10;0.10;;;20.90;99.90;;;;;;5154813;27;20034;-65
2023/08/16 09:10:39;;;;;;;0.07;0.07;;;21.00;99.90;;;;;;5124052;27;20126;-66
2023/08/16 09:13:09;;;;;;;0.17;0.17;;;21.10;99.90;;;;;;5116539;27;20051;-65
2023/08/16 09:15:36;;;;;;;0.25;0.10;;;21.10;99.90;;;;;;5094196;28;20085;-66
2023/08/16 09:18:16;;;;;;;0.00;0.00;;;21.20;99.90;;;;;;5094785;28;20046;-65
2023/08/16 09:20:42;;;;;;;0.17;0.10;;;21.30;99.90;;;;;;5117633;27;20035;-66
2023/08/16 09:23:15;;;;;;;0.10;0.10;;;21.30;99.90;;;;;;5114878;27;20515;-65
2023/08/16 09:25:41;;;;;;;0.10;0.10;;;21.30;99.90;;;;;;5126611;27;20058;-65
2023/08/16 09:28:10;;;;;;;0.10;0.10;;;21.40;99.90;;;;;;5114822;27;20069;-66
2023/08/16 09:30:36;;;;;;;0.10;0.10;;;21.50;99.90;;;;;;5111104;27;20585;-66
2023/08/16 09:33:03;;;;;;;0.00;0.00;;;21.50;99.90;;;;;;5131158;27;20482;-66
2023/08/16 09:35:38;;;;;;;0.10;0.10;;;21.50;99.90;;;;;;5095284;28;20375;-66
2023/08/16 09:38:04;;;;;;;0.25;0.20;;;21.60;99.90;;;;;;5112566;28;20055;-66
2023/08/16 09:40:29;;;;;;;0.30;0.30;;;21.60;99.90;;;;;;5094411;27;20031;-67
2023/08/16 09:43:02;;;;;;;0.20;0.20;;;21.70;99.90;;;;;;5131987;27;20063;-67
2023/08/16 09:45:32;;;;;;;0.10;0.10;;;21.80;99.90;;;;;;5110245;27;20035;-66
2023/08/16 09:48:00;;;;;;;0.90;0.75;;;21.80;99.90;;;;;;5114312;27;20047;-67
2023/08/16 09:50:28;;;;;;;0.47;0.30;;;21.90;99.90;;;;;;5111326;27;20058;-67
2023/08/16 09:52:53;;;;;;;0.50;0.50;;;21.90;99.90;;;;;;5113749;27;20039;-65
2023/08/16 09:55:25;;;;;;;0.17;0.17;;;22.00;99.90;;;;;;5112172;27;20049;-66
2023/08/16 09:57:51;;;;;;;0.20;0.20;;;22.00;99.90;;;;;;5085219;28;20040;-66
2023/08/16 10:00:17;;;;;;;0.85;0.45;;;22.00;99.90;;;;;;5156981;27;20027;-65
2023/08/16 10:02:46;;;;;;;0.10;0.10;;;22.00;99.90;;;;;;5119010;27;20084;-66
2023/08/16 10:05:13;;;;;;;0.00;0.00;;;22.00;99.90;;;;;;5111540;27;20061;-65
2023/08/16 10:07:40;;;;;;;0.55;0.55;;;22.00;99.90;;;;;;5117253;27;20043;-66
2023/08/16 10:10:09;;;;;;;0.10;0.10;;;22.10;99.90;;;;;;5116240;27;20040;-66
2023/08/16 10:12:36;;;;;;;0.57;0.57;;;22.20;99.90;;;;;;5107919;27;20090;-66
2023/08/16 10:15:02;;;;;;;0.10;0.10;;;22.30;99.90;;;;;;5132148;27;20074;-66
2023/08/16 10:17:28;;;;;;;1.55;0.35;;;22.30;99.90;;;;;;5113267;27;20486;-65
2023/08/16 10:20:00;;;;;;;0.20;0.20;;;22.30;99.90;;;;;;5111880;27;20100;-66
2023/08/16 10:22:35;;;;;;;0.15;0.15;;;22.30;99.90;;;;;;5106751;28;20043;-65
2023/08/16 10:25:06;;;;;;;0.10;0.10;;;22.30;99.90;;;;;;5098474;27;20122;-65
2023/08/16 10:27:35;;;;;;;0.20;0.20;;;22.30;99.90;;;;;;5128065;27;20472;-65
2023/08/16 10:30:04;;;;;;;0.10;0.10;;;22.40;99.90;;;;;;5117668;27;20051;-65
2023/08/16 10:32:31;;;;;;;0.10;0.10;;;22.40;99.90;;;;;;5130205;27;20541;-65
2023/08/16 10:34:58;;;;;;;0.10;0.10;;;22.40;99.90;;;;;;5093463;28;20094;-65
2023/08/16 10:37:26;;;;;;;0.10;0.10;;;22.40;99.90;;;;;;5092944;28;20432;-64
2023/08/16 10:39:51;;;;;;;0.10;0.10;;;22.40;99.90;;;;;;5107593;27;20397;-64
2023/08/16 10:42:17;;;;;;;0.10;0.10;;;22.40;99.90;;;;;;5131775;27;20035;-65
2023/08/16 10:44:52;;;;;;;0.85;0.28;;;22.40;99.90;;;;;;5114053;27;20043;-66
2023/08/16 10:47:28;;;;;;;0.10;0.10;;;22.40;99.90;;;;;;5117279;27;20386;-66
2023/08/16 10:49:54;;;;;;;0.20;0.20;;;22.40;99.90;;;;;;5091015;28;20043;-66
2023/08/16 10:52:28;;;;;;;0.20;0.20;;;22.40;99.90;;;;;;5129784;27;20054;-65
2023/08/16 10:54:54;;;;;;;0.15;0.15;;;22.50;99.90;;;;;;5119876;27;20039;-67
2023/08/16 10:57:25;;;;;;;0.10;0.10;;;22.50;99.90;;;;;;5116845;27;20034;-66
2023/08/16 11:00:02;;;;;;;0.30;0.30;;;22.60;99.90;;;;;;5105584;27;20050;-66
2023/08/16 11:02:30;;;;;;;0.30;0.30;;;22.60;99.90;;;;;;5111210;27;20035;-65
2023/08/16 11:04:56;;;;;;;0.10;0.10;;;22.60;99.90;;;;;;5129350;27;20092;-65
2023/08/16 11:07:23;;;;;;;0.10;0.10;;;22.60;99.90;;;;;;5105439;27;20031;-66
2023/08/16 11:09:50;;;;;;;1.25;0.57;;;22.70;99.90;;;;;;5117030;27;20071;-66
2023/08/16 11:12:17;;;;;;;0.82;0.25;;;22.70;99.90;;;;;;5112902;27;20038;-65
2023/08/16 11:14:44;;;;;;;0.10;0.10;;;22.80;99.90;;;;;;5100706;27;20360;-67
2023/08/16 11:17:14;;;;;;;0.20;0.10;;;22.80;99.90;;;;;;5097309;27;20039;-66
2023/08/16 11:19:41;;;;;;;0.10;0.10;;;22.80;99.90;;;;;;5112554;27;20079;-66
2023/08/16 11:22:08;;;;;;;0.15;0.10;;;22.80;99.90;;;;;;5112653;27;20047;-67
2023/08/16 11:24:34;;;;;;;0.10;0.10;;;22.80;99.90;;;;;;5102888;27;20085;-66
2023/08/16 11:27:03;;;;;;;0.82;0.82;;;22.90;99.90;;;;;;5116802;28;20078;-65
2023/08/16 11:29:28;;;;;;;0.17;0.17;;;23.00;99.90;;;;;;5109057;28;20057;-65
2023/08/16 11:31:57;;;;;;;0.20;0.20;;;23.00;99.90;;;;;;5111292;28;20498;-66
2023/08/16 11:34:23;;;;;;;0.75;0.10;;;23.20;99.90;;;;;;5110144;28;20054;-66
2023/08/16 11:36:49;;;;;;;0.10;0.10;;;23.20;99.90;;;;;;5106224;28;20386;-64
2023/08/16 11:39:15;;;;;;;0.25;0.25;;;23.20;99.90;;;;;;5113489;28;20035;-66
2023/08/16 11:41:41;;;;;;;0.10;0.10;;;23.20;99.90;;;;;;5106390;28;20047;-66
2023/08/16 11:44:07;;;;;;;2.10;0.55;;;23.20;99.90;;;;;;5091485;28;20036;-66
2023/08/16 11:46:41;;;;;;;0.10;0.10;;;23.20;99.90;;;;;;5091293;28;20390;-65
2023/08/16 11:49:08;;;;;;;0.10;0.10;;;23.00;99.90;;;;;;5117367;27;20042;-65
2023/08/16 11:51:37;;;;;;;0.10;0.10;;;22.80;99.90;;;;;;5125757;27;20047;-65
2023/08/16 11:54:02;;;;;;;0.10;0.10;;;22.70;99.90;;;;;;5133240;27;20046;-64
2023/08/16 11:56:28;;;;;;;0.10;0.10;;;22.60;99.90;;;;;;5128078;27;20035;-65
2023/08/16 11:58:56;;;;;;;0.20;0.10;;;22.70;99.90;;;;;;5108354;28;20088;-64
2023/08/16 12:01:22;;;;;;;0.43;0.20;;;22.80;99.90;;;;;;5099769;27;20034;-65
2023/08/16 12:03:49;;;;;;;0.20;0.10;;;22.90;99.90;;;;;;5114625;27;20074;-65
2023/08/16 12:06:19;;;;;;;0.10;0.10;;;23.00;99.90;;;;;;5109827;28;20047;-65
2023/08/16 12:08:48;;;;;;;0.17;0.17;;;23.10;99.90;;;;;;5142305;27;20042;-64
2023/08/16 12:11:14;;;;;;;0.15;0.15;;;23.20;99.90;;;;;;5124346;27;20812;-65
2023/08/16 12:13:40;;;;;;;0.40;0.38;;;23.40;99.90;;;;;;5114221;27;20073;-64
2023/08/16 12:16:05;;;;;;;0.38;0.38;;;23.50;99.90;;;;;;5115104;27;20382;-65
2023/08/16 12:18:31;;;;;;;0.30;0.30;;;23.60;99.90;;;;;;5122106;27;20420;-65
2023/08/16 12:20:58;;;;;;;0.15;0.15;;;23.70;99.90;;;;;;5115642;27;20084;-64
2023/08/16 12:23:24;;;;;;;0.00;0.00;;;23.70;99.90;;;;;;5129413;27;20041;-64
2023/08/16 12:25:49;;;;;;;0.32;0.10;;;23.80;99.90;;;;;;5133915;27;20035;-66
2023/08/16 12:28:15;;;;;;;0.45;0.20;;;23.80;99.90;;;;;;5134007;27;20046;-64
2023/08/16 12:30:40;;;;;;;0.10;0.10;;;23.80;99.90;;;;;;5131840;27;20477;-64
2023/08/16 12:33:09;;;;;;;0.35;0.35;;;23.90;99.90;;;;;;5133790;27;20051;-64
2023/08/16 12:35:34;;;;;;;0.20;0.20;;;23.90;99.90;;;;;;5114103;27;20035;-65
2023/08/16 12:38:02;;;;;;;3.13;0.45;;;24.00;99.90;;;;;;5113970;27;20114;-66
2023/08/16 12:40:30;;;;;;;0.15;0.15;;;23.80;99.90;;;;;;5114106;27;20039;-65
2023/08/16 12:42:56;;;;;;;0.30;0.30;;;23.50;99.90;;;;;;5108264;27;20043;-65
2023/08/16 12:45:21;;;;;;;0.30;0.30;;;23.30;99.90;;;;;;5097355;27;20495;-65